EmailTwitter


Surface observations / Quebec / CYUL (71627)

Regions: Quebec | Canada | USA | Europe | France | UK | Elsewhere
Station
Display
Info & Location for CYUL (71627) | Help decoding METAR

Weather Conditions observed on 2018/12/12 at 11:30 UTC at MONTREAL INTL A, QB (CYUL)

Sky conditions: partly cloudy.

Obstruction(s) to Vision: light snow.

Temperature: -10.0 Celsius.

Dewpoint: -11.0 Celsius.

Relative Humidity: 92%

Windchill Factor: -14.

Winds: North-northwest at 7 km/h or 4 knots.

Mean Sea level Pressure: 101.97 kilopascals.

Altimeter Setting (QNH): 101.93 kilopascals or 30.10 inches of mercury.

Horizontal visibility: 10.00 statute miles or 16.00 kilometers.

Height of the Ceiling: 914 metres ( 3000 feet ).

Coded METAR:

CYUL 121130Z 34004KT 10SM -SN SCT025 BKN030 BKN060 M10/M11 A3010 RMK SC4SC1SC2

-SN INTMT SLP197=